createdAt,value
2024-04-18T00:01:06.994Z,2.5
2024-04-18T00:06:07.413Z,3.7
2024-04-18T00:11:08.171Z,3.5
2024-04-18T00:13:21.417Z,5.3
2024-04-18T00:18:22.076Z,5.2
2024-04-18T00:23:22.649Z,6.0
2024-04-18T00:28:23.168Z,2.4
2024-04-18T00:33:23.847Z,3.8
2024-04-18T00:38:24.405Z,4.8
2024-04-18T00:43:24.891Z,4.3
2024-04-18T00:48:25.630Z,4.4
2024-04-18T00:53:25.999Z,3.0
2024-04-18T00:58:26.634Z,2.7
2024-04-18T01:03:27.236Z,5.7
2024-04-18T01:08:27.738Z,2.4
2024-04-18T01:13:28.413Z,3.7
2024-04-18T01:18:28.966Z,4.6
2024-04-18T01:23:29.471Z,5.1
2024-04-18T01:28:30.213Z,5.2
2024-04-18T01:33:30.804Z,5.5
2024-04-18T01:38:31.127Z,6.9
2024-04-18T01:43:31.734Z,3.8
2024-04-18T01:48:32.314Z,3.3
2024-04-18T01:53:32.899Z,4.9
2024-04-18T01:58:33.370Z,3.1
2024-04-18T02:03:34.088Z,4.3
2024-04-18T02:08:34.492Z,3.4
2024-04-18T02:13:35.111Z,7.8
2024-04-18T02:18:35.757Z,7.4
2024-04-18T02:23:36.215Z,3.9
2024-04-18T02:28:37.058Z,5.6
2024-04-18T02:33:37.417Z,6.4
2024-04-18T02:38:37.951Z,6.5
2024-04-18T02:43:38.595Z,3.3
2024-04-18T02:48:39.067Z,8.6
2024-04-18T02:53:39.615Z,7.5
2024-04-18T02:58:40.210Z,4.7
2024-04-18T03:03:40.755Z,5.1
2024-04-18T03:08:41.255Z,6.1
2024-04-18T03:13:41.887Z,5.4
2024-04-18T03:18:42.455Z,9.0
2024-04-18T03:23:42.932Z,5.1
2024-04-18T03:28:43.689Z,6.5
2024-04-18T03:33:44.252Z,4.8
2024-04-18T03:38:44.732Z,3.9
2024-04-18T03:43:45.352Z,2.8
2024-04-18T03:48:45.842Z,5.4
2024-04-18T03:53:46.497Z,6.9
2024-04-18T03:58:47.024Z,5.9
2024-04-18T04:03:47.618Z,4.7
2024-04-18T04:08:48.034Z,7.7
2024-04-18T04:13:48.953Z,6.5
2024-04-18T04:18:49.216Z,5.8
2024-04-18T04:23:49.762Z,5.8
2024-04-18T04:28:50.533Z,5.1
2024-04-18T04:33:51.054Z,5.1
2024-04-18T04:38:51.472Z,8.7
2024-04-18T04:43:52.117Z,6.8
2024-04-18T04:48:52.736Z,8.9
2024-04-18T04:53:54.549Z,5.3
2024-04-18T04:58:53.855Z,6.1
2024-04-18T05:03:54.662Z,7.2
2024-04-18T05:08:54.963Z,6.3
2024-04-18T05:13:55.539Z,5.5
2024-04-18T05:18:56.289Z,8.3
2024-04-18T05:23:56.739Z,7.9
2024-04-18T05:28:57.511Z,7.9
2024-04-18T05:33:58.011Z,3.3
2024-04-18T05:38:58.762Z,3.6
2024-04-18T05:43:59.311Z,3.2
2024-04-18T05:48:59.845Z,3.9
2024-04-18T05:54:00.525Z,4.9
2024-04-18T05:59:01.058Z,10.7
2024-04-18T06:04:01.742Z,7.3
2024-04-18T06:09:02.147Z,3.5
2024-04-18T06:14:02.831Z,5.7
2024-04-18T06:19:03.401Z,4.2
2024-04-18T06:24:03.965Z,7.2
2024-04-18T06:29:04.684Z,5.9
2024-04-18T06:34:05.423Z,4.7
2024-04-18T06:39:05.783Z,7.3
2024-04-18T06:44:06.493Z,5.7
2024-04-18T06:49:07.123Z,4.2
2024-04-18T06:54:07.573Z,6.1
2024-04-18T06:59:08.238Z,10.7
2024-04-18T07:04:08.926Z,5.0
2024-04-18T07:09:09.430Z,12.4
2024-04-18T07:14:10.111Z,4.5
2024-04-18T07:19:10.758Z,4.4
2024-04-18T07:24:11.276Z,12.1
2024-04-18T07:29:12.275Z,6.4
2024-04-18T07:34:12.632Z,5.2
2024-04-18T07:39:13.285Z,6.8
2024-04-18T07:44:13.830Z,7.0
2024-04-18T07:49:14.559Z,9.3
2024-04-18T07:54:15.077Z,7.1
2024-04-18T07:59:16.555Z,11.2
2024-04-18T08:04:35.022Z,11.0
2024-04-18T08:09:19.851Z,12.0
2024-04-18T08:14:22.396Z,10.0
2024-04-18T08:19:18.174Z,8.8
2024-04-18T08:24:18.826Z,8.5
2024-04-18T08:29:19.635Z,11.2
2024-04-18T08:34:22.011Z,10.2
2024-04-18T08:39:20.655Z,10.4
2024-04-18T08:44:21.336Z,13.7
2024-04-18T08:49:22.075Z,14.9
2024-04-18T08:54:22.673Z,9.3
2024-04-18T08:59:23.492Z,7.1
2024-04-18T09:04:23.985Z,8.4
2024-04-18T09:09:24.771Z,10.3
2024-04-18T09:14:25.313Z,12.1
2024-04-18T09:19:25.913Z,9.7
2024-04-18T09:24:26.596Z,9.0
2024-04-18T09:29:27.610Z,13.1
2024-04-18T09:34:27.855Z,13.7
2024-04-18T09:39:28.522Z,14.2
2024-04-18T09:44:30.227Z,9.9
2024-04-18T09:49:29.870Z,8.4
2024-04-18T09:54:30.338Z,7.3
2024-04-18T09:59:31.092Z,11.0
2024-04-18T10:04:31.571Z,7.5
2024-04-18T10:09:32.354Z,9.5
2024-04-18T10:14:32.943Z,8.1
2024-04-18T10:19:33.687Z,7.8
2024-04-18T10:24:34.152Z,5.7
2024-04-18T10:29:35.138Z,5.0
2024-04-18T10:34:35.423Z,8.1
2024-04-18T10:39:36.181Z,11.1
2024-04-18T10:44:36.813Z,6.0
2024-04-18T10:49:37.343Z,6.1
2024-04-18T10:54:38.000Z,5.7
2024-04-18T10:59:38.530Z,5.2
2024-04-18T11:04:39.131Z,4.1
2024-04-18T11:09:39.733Z,5.3
2024-04-18T11:14:40.453Z,8.9
2024-04-18T11:19:40.926Z,4.2
2024-04-18T11:24:41.619Z,6.9
2024-04-18T11:29:42.380Z,8.4
2024-04-18T11:34:42.802Z,5.1
2024-04-18T11:39:46.602Z,7.1
2024-04-18T11:44:44.164Z,7.8
2024-04-18T11:49:46.994Z,7.0
2024-04-18T11:54:45.415Z,7.1
2024-04-18T11:59:46.773Z,5.2
2024-04-18T12:04:46.677Z,7.3
2024-04-18T12:09:47.294Z,5.1
2024-04-18T12:14:48.797Z,5.5
2024-04-18T12:19:48.585Z,4.7
2024-04-18T12:24:49.204Z,10.0
2024-04-18T12:29:50.053Z,7.0
2024-04-18T12:34:50.563Z,8.1
2024-04-18T12:39:51.289Z,9.1
2024-04-18T12:44:51.997Z,9.4
2024-04-18T12:49:52.756Z,12.9
2024-04-18T12:54:53.196Z,14.0
2024-04-18T12:59:53.882Z,15.4
2024-04-18T13:04:54.517Z,15.7
2024-04-18T13:09:55.466Z,14.2
2024-04-18T13:14:55.773Z,17.7
2024-04-18T13:19:56.360Z,16.6
2024-04-18T13:24:56.907Z,16.0
2024-04-18T13:29:57.822Z,27.6
2024-04-18T13:34:58.163Z,20.2
2024-04-18T13:39:59.968Z,23.9
2024-04-18T13:44:59.623Z,16.7
2024-04-18T13:50:00.203Z,17.3
2024-04-18T13:55:00.812Z,15.4
2024-04-18T14:00:01.592Z,14.0
2024-04-18T14:05:01.910Z,23.7
2024-04-18T14:10:02.510Z,19.4
2024-04-18T14:15:03.317Z,19.9
2024-04-18T14:20:03.853Z,24.4
2024-04-18T14:25:04.450Z,21.3
2024-04-18T14:30:05.378Z,23.6
2024-04-18T14:35:05.800Z,17.5
2024-04-18T14:40:06.385Z,18.9
2024-04-18T14:45:07.141Z,18.7
2024-04-18T14:50:07.680Z,17.5
2024-04-18T14:55:08.461Z,18.1
2024-04-18T15:00:08.935Z,19.9
2024-04-18T15:05:09.585Z,15.4
2024-04-18T15:10:10.132Z,22.1
2024-04-18T15:15:10.904Z,15.3
2024-04-18T15:20:11.449Z,20.8
2024-04-18T15:25:11.987Z,21.4
2024-04-18T15:30:12.975Z,16.2
2024-04-18T15:35:13.291Z,18.3
2024-04-18T15:40:17.476Z,20.8
2024-04-18T15:45:14.659Z,23.1
2024-04-18T15:50:15.217Z,26.4
2024-04-18T15:55:21.574Z,19.3
2024-04-18T16:00:16.753Z,19.7
2024-04-18T16:05:17.118Z,22.5
2024-04-18T16:10:17.763Z,18.5
2024-04-18T16:15:18.605Z,21.6
2024-04-18T16:20:19.088Z,14.1
2024-04-18T16:25:19.888Z,22.1
2024-04-18T16:30:21.010Z,24.6
2024-04-18T16:35:21.029Z,23.8
2024-04-18T16:40:21.760Z,22.2
2024-04-18T16:45:22.495Z,23.8
2024-04-18T16:50:23.043Z,22.8
2024-04-18T16:55:23.720Z,24.6
2024-04-18T17:00:24.456Z,21.8
2024-04-18T17:05:25.535Z,13.0
2024-04-18T17:10:25.626Z,19.4
2024-04-18T17:15:26.374Z,14.5
2024-04-18T17:20:26.864Z,11.6
2024-04-18T17:25:27.487Z,13.4
2024-04-18T17:30:28.334Z,15.2
2024-04-18T17:35:28.709Z,18.0
2024-04-18T17:40:29.371Z,14.3
2024-04-18T17:45:30.075Z,15.9
2024-04-18T17:50:30.619Z,15.8
2024-04-18T17:55:31.187Z,18.1
2024-04-18T18:00:31.892Z,16.5
2024-04-18T18:05:32.443Z,15.8
2024-04-18T18:10:33.034Z,7.3
2024-04-18T18:15:33.814Z,7.7
2024-04-18T18:20:34.360Z,5.9
2024-04-18T18:25:34.884Z,7.0
2024-04-18T18:30:35.734Z,12.6
2024-04-18T18:35:36.062Z,12.9
2024-04-18T18:40:36.743Z,13.8
2024-04-18T18:45:37.520Z,15.9
2024-04-18T18:50:37.905Z,15.3
2024-04-18T18:55:38.491Z,13.0
2024-04-18T19:00:39.252Z,15.8
2024-04-18T19:05:39.734Z,11.1
2024-04-18T19:10:40.291Z,20.3
2024-04-18T19:15:40.967Z,13.0
2024-04-18T19:20:41.507Z,15.2
2024-04-18T19:25:42.216Z,14.2
2024-04-18T19:30:43.166Z,12.1
2024-04-18T19:35:43.285Z,9.3
2024-04-18T19:40:43.808Z,15.4
2024-04-18T19:45:44.641Z,11.6
2024-04-18T19:50:45.042Z,20.6
2024-04-18T19:55:45.614Z,10.7
2024-04-18T20:00:46.397Z,16.3
2024-04-18T20:05:46.797Z,13.6
2024-04-18T20:10:47.436Z,14.3
2024-04-18T20:15:48.190Z,15.7
2024-04-18T20:20:48.646Z,13.2
2024-04-18T20:25:49.140Z,14.8
2024-04-18T20:30:50.005Z,12.7
2024-04-18T20:35:50.379Z,10.8
2024-04-18T20:40:50.921Z,9.3
2024-04-18T20:45:51.716Z,13.5
2024-04-18T20:50:52.116Z,15.1
2024-04-18T20:55:52.669Z,15.0
2024-04-18T21:00:53.389Z,15.8
2024-04-18T21:05:53.855Z,13.1
2024-04-18T21:10:54.462Z,6.8
2024-04-18T21:15:55.136Z,6.7
2024-04-18T21:20:55.712Z,6.7
2024-04-18T21:25:56.289Z,7.2
2024-04-18T21:30:57.118Z,8.5
2024-04-18T21:35:57.503Z,3.4
2024-04-18T21:40:58.090Z,5.5
2024-04-18T21:45:58.802Z,4.2
2024-04-18T21:50:59.280Z,4.3
2024-04-18T21:55:59.834Z,4.6
2024-04-18T22:01:00.709Z,4.5
2024-04-18T22:06:01.244Z,7.4
2024-04-18T22:11:01.715Z,5.9
2024-04-18T22:16:02.205Z,8.4
2024-04-18T22:21:02.762Z,9.6
2024-04-18T22:26:03.372Z,8.0
2024-04-18T22:31:04.048Z,8.7
2024-04-18T22:36:04.525Z,9.7
2024-04-18T22:41:05.129Z,8.1
2024-04-18T22:46:05.729Z,9.4
2024-04-18T22:51:06.220Z,12.5
2024-04-18T22:56:06.771Z,6.8
2024-04-18T23:01:07.616Z,13.0
2024-04-18T23:06:07.995Z,11.8
2024-04-18T23:11:08.618Z,13.6
2024-04-18T23:16:09.139Z,6.0
2024-04-18T23:21:09.647Z,16.3
2024-04-18T23:26:10.180Z,14.9
2024-04-18T23:31:10.965Z,11.3
2024-04-18T23:36:11.373Z,11.6
2024-04-18T23:41:11.879Z,15.3
2024-04-18T23:46:12.541Z,14.5
2024-04-18T23:51:12.966Z,11.4
2024-04-18T23:56:18.543Z,16.8
